Time;durP1;ratioP1;P1;durP2;ratioP2;P2;SDS_P1;SDS_P2;PMS_P1;PMS_P2;Temp;Humidity;BMP_temperature;BMP_pressure;BME280_temperature;BME280_humidity;BME280_pressure;Samples;Min_cycle;Max_cycle;Signal;HPM_P1;HPM_P2
2023/01/01 00:01:06;;;;;;;;;;;13.90;99.90;;;;;;5046195;28;19920;-66
2023/01/01 00:03:31;;;;;;;;;;;13.90;99.90;;;;;;5047970;28;19987;-69
2023/01/01 00:05:57;;;;;;;;;;;13.90;99.90;;;;;;5047375;28;20032;-66
2023/01/01 00:08:22;;;;;;;;;;;13.90;99.90;;;;;;5046094;28;20208;-65
2023/01/01 00:10:48;;;;;;;;;;;13.90;99.90;;;;;;5049748;28;19967;-66
2023/01/01 00:13:14;;;;;;;;;;;13.90;99.90;;;;;;5052873;28;19925;-66
2023/01/01 00:15:39;;;;;;;;;;;13.90;99.90;;;;;;5049779;28;19920;-66
2023/01/01 00:18:05;;;;;;;;;;;13.90;99.90;;;;;;5047429;28;19927;-67
2023/01/01 00:20:30;;;;;;;;;;;13.90;99.90;;;;;;5042027;28;19917;-68
2023/01/01 00:22:56;;;;;;;;;;;13.90;99.90;;;;;;5036142;28;19930;-68
2023/01/01 00:25:22;;;;;;;;;;;13.90;99.90;;;;;;5038800;28;19920;-68
2023/01/01 00:27:47;;;;;;;;;;;13.90;99.90;;;;;;5037050;28;20406;-67
2023/01/01 00:30:13;;;;;;;;;;;13.90;99.90;;;;;;5046510;28;20317;-67
2023/01/01 00:32:39;;;;;;;;;;;13.90;99.90;;;;;;5038301;28;19976;-65
2023/01/01 00:35:04;;;;;;;;;;;13.90;99.90;;;;;;5038344;28;19924;-68
2023/01/01 00:37:30;;;;;;;;;;;13.80;99.90;;;;;;5047765;28;20281;-67
2023/01/01 00:39:56;;;;;;;;;;;13.80;99.90;;;;;;5043240;28;19924;-66
2023/01/01 00:42:21;;;;;;;;;;;13.80;99.90;;;;;;5039357;28;19921;-71
2023/01/01 00:44:47;;;;;;;;;;;13.70;99.90;;;;;;5052712;28;19925;-67
2023/01/01 00:47:12;;;;;;;;;;;13.70;99.90;;;;;;5052528;28;19921;-68
2023/01/01 00:49:38;;;;;;;;;;;13.70;99.90;;;;;;5052374;28;20017;-69
2023/01/01 00:52:04;;;;;;;;;;;13.70;99.90;;;;;;5052309;28;19925;-70
2023/01/01 00:54:29;;;;;;;;;;;13.70;99.90;;;;;;5052838;28;20002;-67
2023/01/01 00:56:56;;;;;;;;;;;13.70;99.90;;;;;;5052277;28;19928;-67
2023/01/01 00:59:22;;;;;;;;;;;13.70;99.90;;;;;;5053047;28;20345;-69
2023/01/01 01:01:47;;;;;;;;;;;13.60;99.90;;;;;;5054450;28;19976;-67
2023/01/01 01:04:13;;;;;;;;;;;13.70;99.90;;;;;;5052106;28;20255;-68
2023/01/01 01:06:38;;;;;;;;;;;13.60;99.90;;;;;;5053826;28;19925;-68
2023/01/01 01:09:05;;;;;;;;;;;13.60;99.90;;;;;;5052343;28;19932;-67
2023/01/01 01:11:31;;;;;;;;;;;13.50;99.90;;;;;;5054890;28;19924;-67
2023/01/01 01:13:57;;;;;;;;;;;13.50;99.90;;;;;;5060888;28;19981;-69
2023/01/01 01:16:23;;;;;;;;;;;13.40;99.90;;;;;;5058011;28;20357;-67
2023/01/01 01:18:50;;;;;;;;;;;13.40;99.90;;;;;;5054841;28;19925;-67
2023/01/01 01:21:16;;;;;;;;;;;13.40;99.90;;;;;;5055194;28;19955;-68
2023/01/01 01:23:42;;;;;;;;;;;13.30;99.90;;;;;;5054796;28;20033;-66
2023/01/01 01:26:10;;;;;;;;;;;13.30;99.90;;;;;;5054734;28;19970;-71
2023/01/01 01:28:36;;;;;;;;;;;13.30;99.90;;;;;;5051167;28;19928;-69
2023/01/01 01:31:02;;;;;;;;;;;13.20;99.90;;;;;;5052339;28;19924;-68
2023/01/01 01:33:27;;;;;;;;;;;13.20;99.90;;;;;;5052081;28;19936;-64
2023/01/01 01:35:53;;;;;;;;;;;13.10;99.90;;;;;;5035245;28;19931;-67
2023/01/01 01:38:18;;;;;;;;;;;13.10;99.90;;;;;;5051172;28;20016;-69
2023/01/01 01:40:44;;;;;;;;;;;13.10;99.90;;;;;;5074543;28;19967;-67
2023/01/01 01:43:30;;;;;;;;;;;13.10;99.90;;;;;;5046502;28;19921;-66
2023/01/01 01:45:58;;;;;;;;;;;13.00;99.90;;;;;;5038302;28;19925;-66
2023/01/01 01:48:23;;;;;;;;;;;13.00;99.90;;;;;;5045060;28;20488;-67
2023/01/01 01:50:51;;;;;;;;;;;12.90;99.90;;;;;;5051724;28;19999;-68
2023/01/01 01:53:22;;;;;;;;;;;12.80;99.90;;;;;;5055335;28;19966;-66
2023/01/01 01:55:56;;;;;;;;;;;12.90;99.90;;;;;;5043883;28;20712;-67
2023/01/01 01:58:23;;;;;;;;;;;12.80;99.90;;;;;;5044772;28;20394;-65
2023/01/01 02:00:49;;;;;;;;;;;12.70;99.90;;;;;;5050248;28;19968;-67
2023/01/01 02:03:22;;;;;;;;;;;12.70;99.90;;;;;;5051046;28;19963;-65
2023/01/01 02:05:47;;;;;;;;;;;12.70;99.90;;;;;;5045200;28;20369;-66
2023/01/01 02:08:14;;;;;;;;;;;12.70;99.90;;;;;;5043441;28;19932;-66
2023/01/01 02:10:40;;;;;;;;;;;12.70;99.90;;;;;;5047328;28;19925;-66
2023/01/01 02:13:06;;;;;;;;;;;12.60;99.90;;;;;;5052147;28;19974;-68
2023/01/01 02:15:45;;;;;;;;;;;12.60;99.90;;;;;;5049549;28;20380;-66
2023/01/01 02:18:12;;;;;;;;;;;12.60;99.90;;;;;;5066184;28;19959;-65
2023/01/01 02:20:48;;;;;;;;;;;12.50;99.90;;;;;;5051101;28;19932;-67
2023/01/01 02:23:13;;;;;;;;;;;12.50;99.90;;;;;;5046626;28;19924;-67
2023/01/01 02:25:52;;;;;;;;;;;12.50;99.90;;;;;;5078686;28;20259;-68
2023/01/01 02:28:29;;;;;;;;;;;12.50;99.90;;;;;;5049885;28;19920;-68
2023/01/01 02:30:55;;;;;;;;;;;12.50;99.90;;;;;;5049449;28;19925;-69
2023/01/01 02:33:23;;;;;;;;;;;12.40;99.90;;;;;;5051007;28;19924;-68
2023/01/01 02:36:00;;;;;;;;;;;12.40;99.90;;;;;;5051455;28;20418;-69
2023/01/01 02:38:30;;;;;;;;;;;12.40;99.90;;;;;;5051495;28;19943;-68
2023/01/01 02:40:58;;;;;;;;;;;12.50;99.90;;;;;;5048342;28;19920;-69
2023/01/01 02:43:23;;;;;;;;;;;12.40;99.90;;;;;;5052225;28;19927;-67
2023/01/01 02:45:49;;;;;;;;;;;12.50;99.90;;;;;;5084009;28;20421;-66
2023/01/01 02:48:34;;;;;;;;;;;12.50;99.90;;;;;;5044985;28;19921;-66
2023/01/01 02:51:02;;;;;;;;;;;12.50;99.90;;;;;;5052217;28;20293;-65
2023/01/01 02:53:31;;;;;;;;;;;12.50;99.90;;;;;;5049265;28;20378;-64
2023/01/01 02:55:56;;;;;;;;;;;12.40;99.90;;;;;;5069630;28;19964;-67
2023/01/01 03:01:39;;;;;;;;;;;12.40;99.90;;;;;;5050120;28;19964;-65
2023/01/01 03:04:23;;;;;;;;;;;12.40;99.90;;;;;;5030906;28;19928;-65
2023/01/01 03:06:51;;;;;;;;;;;12.30;99.90;;;;;;5050833;28;19925;-66
2023/01/01 03:09:36;;;;;;;;;;;12.30;99.90;;;;;;5046342;28;19925;-66
2023/01/01 03:12:08;;;;;;;;;;;12.30;99.90;;;;;;5037186;28;19928;-66
2023/01/01 03:14:37;;;;;;;;;;;12.30;99.90;;;;;;5049286;28;20397;-65
2023/01/01 03:17:15;;;;;;;;;;;12.20;99.90;;;;;;5058296;28;19925;-68
2023/01/01 03:19:41;;;;;;;;;;;12.20;99.90;;;;;;5036691;28;19974;-68
2023/01/01 03:22:09;;;;;;;;;;;12.20;99.90;;;;;;5040565;28;19999;-67
2023/01/01 03:24:41;;;;;;;;;;;12.10;99.90;;;;;;5042112;28;20440;-67
2023/01/01 03:27:14;;;;;;;;;;;12.10;99.90;;;;;;5052937;28;19928;-66
2023/01/01 03:29:41;;;;;;;;;;;12.00;99.90;;;;;;5051377;28;19928;-67
2023/01/01 03:32:09;;;;;;;;;;;12.10;99.90;;;;;;5051818;28;19924;-66
2023/01/01 03:34:40;;;;;;;;;;;12.00;99.90;;;;;;5038690;28;19924;-66
2023/01/01 03:37:07;;;;;;;;;;;12.00;99.90;;;;;;5053044;28;20015;-67
2023/01/01 03:39:35;;;;;;;;;;;12.00;99.90;;;;;;5052044;28;19927;-66
2023/01/01 03:42:00;;;;;;;;;;;11.90;99.90;;;;;;5057543;28;19921;-67
2023/01/01 03:44:32;;;;;;;;;;;11.80;99.90;;;;;;5051815;28;20320;-65
2023/01/01 03:46:58;;;;;;;;;;;11.80;99.90;;;;;;5051665;28;20377;-66
2023/01/01 03:49:24;;;;;;;;;;;11.70;99.90;;;;;;5051829;28;19931;-65
2023/01/01 03:52:06;;;;;;;;;;;11.70;99.90;;;;;;5055062;28;20328;-66
2023/01/01 03:54:43;;;;;;;;;;;11.70;99.90;;;;;;5052107;28;19921;-66
2023/01/01 03:57:20;;;;;;;;;;;11.70;99.90;;;;;;5050440;28;19928;-67
2023/01/01 03:59:45;;;;;;;;;;;11.70;99.90;;;;;;5050313;28;19920;-67
2023/01/01 04:02:14;;;;;;;;;;;11.70;99.90;;;;;;5051552;28;19928;-68
2023/01/01 04:04:40;;;;;;;;;;;11.60;99.90;;;;;;5051826;28;20337;-68
2023/01/01 04:07:06;;;;;;;;;;;11.60;99.90;;;;;;5084088;28;20019;-67
2023/01/01 04:09:33;;;;;;;;;;;11.60;99.90;;;;;;5051710;28;20007;-66
2023/01/01 04:12:03;;;;;;;;;;;11.60;99.90;;;;;;5051049;28;19924;-66
2023/01/01 04:14:39;;;;;;;;;;;11.60;99.90;;;;;;5058962;28;20423;-66
2023/01/01 04:17:05;;;;;;;;;;;11.60;99.90;;;;;;5035884;28;19991;-67
2023/01/01 04:19:32;;;;;;;;;;;11.70;99.90;;;;;;5051021;28;20334;-67
2023/01/01 04:21:57;;;;;;;;;;;11.70;99.90;;;;;;5051123;28;19947;-67
2023/01/01 04:24:23;;;;;;;;;;;11.70;99.90;;;;;;5033633;28;19925;-66
2023/01/01 04:26:49;;;;;;;;;;;11.70;99.90;;;;;;5050688;28;19920;-66
2023/01/01 04:29:15;;;;;;;;;;;11.70;99.90;;;;;;5049557;28;20003;-67
2023/01/01 04:31:41;;;;;;;;;;;11.70;99.90;;;;;;5051392;28;20043;-67
2023/01/01 04:34:06;;;;;;;;;;;11.70;99.90;;;;;;5050759;28;19925;-67
2023/01/01 04:36:32;;;;;;;;;;;11.80;99.90;;;;;;5051601;28;20378;-67
2023/01/01 04:38:57;;;;;;;;;;;11.80;99.90;;;;;;5050308;28;20278;-67
2023/01/01 04:41:23;;;;;;;;;;;11.80;99.90;;;;;;5050907;28;19928;-67
2023/01/01 04:43:52;;;;;;;;;;;11.70;99.90;;;;;;5059286;28;19947;-67
2023/01/01 04:46:18;;;;;;;;;;;11.70;99.90;;;;;;5051725;28;19955;-67
2023/01/01 04:48:44;;;;;;;;;;;11.80;99.90;;;;;;5041203;28;19928;-67
2023/01/01 04:51:11;;;;;;;;;;;11.70;99.90;;;;;;5050581;28;20355;-68
2023/01/01 04:53:36;;;;;;;;;;;11.70;99.90;;;;;;5051107;28;20054;-68
2023/01/01 04:56:06;;;;;;;;;;;11.70;99.90;;;;;;5051282;28;20405;-67
2023/01/01 04:58:32;;;;;;;;;;;11.70;99.90;;;;;;5050101;28;19920;-67
2023/01/01 05:00:57;;;;;;;;;;;11.70;99.90;;;;;;5050993;28;19927;-69
2023/01/01 05:03:23;;;;;;;;;;;11.60;99.90;;;;;;5035621;28;20429;-67
2023/01/01 05:05:58;;;;;;;;;;;11.60;99.90;;;;;;5052152;28;19939;-67
2023/01/01 05:08:24;;;;;;;;;;;11.70;99.90;;;;;;5050717;28;19924;-68
2023/01/01 05:10:49;;;;;;;;;;;11.60;99.90;;;;;;5051239;28;20051;-68
2023/01/01 05:13:15;;;;;;;;;;;11.70;99.90;;;;;;5050094;28;19927;-67
2023/01/01 05:15:40;;;;;;;;;;;11.60;99.90;;;;;;5049698;28;20338;-68
2023/01/01 05:18:06;;;;;;;;;;;11.60;99.90;;;;;;5081881;28;19932;-70
2023/01/01 05:20:31;;;;;;;;;;;11.70;99.90;;;;;;5036914;28;20023;-67
2023/01/01 05:22:57;;;;;;;;;;;11.60;99.90;;;;;;5047973;28;19928;-67
2023/01/01 05:25:23;;;;;;;;;;;11.60;99.90;;;;;;5044489;28;20043;-68
2023/01/01 05:27:48;;;;;;;;;;;11.60;99.90;;;;;;5050843;28;19921;-67
2023/01/01 05:30:14;;;;;;;;;;;11.60;99.90;;;;;;5051635;28;20325;-67
2023/01/01 05:32:39;;;;;;;;;;;11.70;99.90;;;;;;5053022;28;19924;-68
2023/01/01 05:35:05;;;;;;;;;;;11.70;99.90;;;;;;5052993;28;19924;-67
2023/01/01 05:37:30;;;;;;;;;;;11.70;99.90;;;;;;5053209;28;19920;-68
2023/01/01 05:39:56;;;;;;;;;;;11.70;99.90;;;;;;5054369;28;19924;-67
2023/01/01 05:42:22;;;;;;;;;;;11.70;99.90;;;;;;5054104;28;19947;-69
2023/01/01 05:44:47;;;;;;;;;;;11.70;99.90;;;;;;5052938;28;19966;-68
2023/01/01 05:47:16;;;;;;;;;;;11.70;99.90;;;;;;5054920;28;19920;-67
2023/01/01 05:49:41;;;;;;;;;;;11.70;99.90;;;;;;5054022;28;20370;-66
2023/01/01 05:52:07;;;;;;;;;;;11.70;99.90;;;;;;5052996;28;19928;-67
2023/01/01 05:54:32;;;;;;;;;;;11.80;99.90;;;;;;5051258;28;19968;-66
2023/01/01 05:56:58;;;;;;;;;;;11.70;99.90;;;;;;5049861;28;19927;-67
2023/01/01 05:59:24;;;;;;;;;;;11.80;99.90;;;;;;5045194;28;19921;-67
2023/01/01 06:01:49;;;;;;;;;;;11.80;99.90;;;;;;5041163;28;20385;-67
2023/01/01 06:04:15;;;;;;;;;;;11.80;99.90;;;;;;5045783;28;20235;-67
2023/01/01 06:06:40;;;;;;;;;;;11.80;99.90;;;;;;5042731;28;19921;-66
2023/01/01 06:09:06;;;;;;;;;;;11.70;99.90;;;;;;5050040;28;20293;-70
2023/01/01 06:11:32;;;;;;;;;;;11.70;99.90;;;;;;5042952;28;19925;-66
2023/01/01 06:13:58;;;;;;;;;;;11.70;99.90;;;;;;5042021;28;19925;-66
2023/01/01 06:16:24;;;;;;;;;;;11.80;99.90;;;;;;5046020;28;19928;-67
2023/01/01 06:18:50;;;;;;;;;;;11.70;99.90;;;;;;5041108;28;19924;-66
2023/01/01 06:21:17;;;;;;;;;;;11.70;99.90;;;;;;5051229;28;20420;-64
2023/01/01 06:23:43;;;;;;;;;;;11.70;99.90;;;;;;5086168;28;20002;-66
2023/01/01 06:26:16;;;;;;;;;;;11.70;99.90;;;;;;5053054;28;19926;-66
2023/01/01 06:28:42;;;;;;;;;;;11.60;99.90;;;;;;5056759;28;19943;-67
2023/01/01 06:31:08;;;;;;;;;;;11.60;99.90;;;;;;5053512;28;19970;-67
2023/01/01 06:33:34;;;;;;;;;;;11.60;99.90;;;;;;5051451;28;19924;-66
2023/01/01 06:36:04;;;;;;;;;;;11.60;99.90;;;;;;5051469;28;19927;-67
2023/01/01 06:38:33;;;;;;;;;;;11.60;99.90;;;;;;5050740;28;19920;-68
2023/01/01 06:41:00;;;;;;;;;;;11.60;99.90;;;;;;5046169;28;19929;-66
2023/01/01 06:43:26;;;;;;;;;;;11.50;99.90;;;;;;5046966;28;19921;-66
2023/01/01 06:46:17;;;;;;;;;;;11.50;99.90;;;;;;5048154;28;20420;-66
2023/01/01 06:48:45;;;;;;;;;;;11.50;99.90;;;;;;5042349;28;20322;-66
2023/01/01 06:51:18;;;;;;;;;;;11.50;99.90;;;;;;5041090;28;20003;-66
2023/01/01 06:53:44;;;;;;;;;;;11.50;99.90;;;;;;5043129;28;19931;-66
2023/01/01 06:56:09;;;;;;;;;;;11.50;99.90;;;;;;5045003;28;20012;-67
2023/01/01 06:58:35;;;;;;;;;;;11.50;99.90;;;;;;5049936;28;19927;-66
2023/01/01 07:01:05;;;;;;;;;;;11.50;99.90;;;;;;5083019;28;20333;-66
2023/01/01 07:03:30;;;;;;;;;;;11.50;99.90;;;;;;5042376;28;20329;-66
2023/01/01 07:05:56;;;;;;;;;;;11.40;99.90;;;;;;5047770;28;19925;-67
2023/01/01 07:08:22;;;;;;;;;;;11.40;99.90;;;;;;5047563;28;19921;-72
2023/01/01 07:10:47;;;;;;;;;;;11.40;99.90;;;;;;5050886;28;20010;-67
2023/01/01 07:13:13;;;;;;;;;;;11.40;99.90;;;;;;5045226;28;19925;-66
2023/01/01 07:15:38;;;;;;;;;;;11.40;99.90;;;;;;5044361;28;19927;-66
2023/01/01 07:18:04;;;;;;;;;;;11.40;99.90;;;;;;5046737;28;19979;-66
2023/01/01 07:20:30;;;;;;;;;;;11.30;99.90;;;;;;5079264;28;19970;-68
2023/01/01 07:22:55;;;;;;;;;;;11.30;99.90;;;;;;5048777;28;19920;-67
2023/01/01 07:25:21;;;;;;;;;;;11.30;99.90;;;;;;5047761;28;20054;-67
2023/01/01 07:27:46;;;;;;;;;;;11.30;99.90;;;;;;5051709;28;19964;-67
2023/01/01 07:30:12;;;;;;;;;;;11.20;99.90;;;;;;5051068;28;20309;-67
2023/01/01 07:32:38;;;;;;;;;;;11.30;99.90;;;;;;5050923;28;19929;-67
2023/01/01 07:35:03;;;;;;;;;;;11.30;99.90;;;;;;5064082;28;19927;-66
2023/01/01 07:37:29;;;;;;;;;;;11.30;99.90;;;;;;5041883;28;19968;-67
2023/01/01 07:39:55;;;;;;;;;;;11.20;99.90;;;;;;5047763;28;19928;-67
2023/01/01 07:42:20;;;;;;;;;;;11.20;99.90;;;;;;5048830;28;19924;-73
2023/01/01 07:44:46;;;;;;;;;;;11.20;99.90;;;;;;5043471;28;19932;-69
2023/01/01 07:47:19;;;;;;;;;;;11.10;99.90;;;;;;5044447;28;19926;-66
2023/01/01 07:49:45;;;;;;;;;;;11.10;99.90;;;;;;5043589;28;19921;-66
2023/01/01 07:52:11;;;;;;;;;;;11.10;99.90;;;;;;5043659;28;19974;-66
2023/01/01 07:54:36;;;;;;;;;;;11.10;99.90;;;;;;5043108;28;19921;-66
2023/01/01 07:57:02;;;;;;;;;;;11.10;99.90;;;;;;5043036;28;20385;-66
2023/01/01 07:59:27;;;;;;;;;;;11.00;99.90;;;;;;5044324;28;19928;-70
2023/01/01 08:01:53;;;;;;;;;;;11.10;99.90;;;;;;5040024;28;19956;-66
2023/01/01 08:04:18;;;;;;;;;;;11.00;99.90;;;;;;5051949;28;19920;-66
2023/01/01 08:06:44;;;;;;;;;;;11.00;99.90;;;;;;5040213;28;20035;-66
2023/01/01 08:09:10;;;;;;;;;;;11.00;99.90;;;;;;5044540;28;19939;-66
2023/01/01 08:11:35;;;;;;;;;;;11.00;99.90;;;;;;5041366;28;20325;-66
2023/01/01 08:14:01;;;;;;;;;;;11.00;99.90;;;;;;5049924;28;19921;-66
2023/01/01 08:16:26;;;;;;;;;;;11.00;99.90;;;;;;5049868;28;19943;-67
2023/01/01 08:18:52;;;;;;;;;;;11.00;99.90;;;;;;5039595;28;19958;-67
2023/01/01 08:21:17;;;;;;;;;;;11.00;99.90;;;;;;5046731;28;19924;-67
2023/01/01 08:23:43;;;;;;;;;;;11.00;99.90;;;;;;5043338;28;20433;-66
2023/01/01 08:26:13;;;;;;;;;;;11.00;99.90;;;;;;5061625;28;19931;-68
2023/01/01 08:28:38;;;;;;;;;;;11.00;99.90;;;;;;5049580;28;19920;-65
2023/01/01 08:31:04;;;;;;;;;;;11.00;99.90;;;;;;5050359;28;20290;-67
2023/01/01 08:33:30;;;;;;;;;;;11.00;99.90;;;;;;5083862;28;19925;-67
2023/01/01 08:35:55;;;;;;;;;;;11.00;99.90;;;;;;5046174;28;19964;-67
2023/01/01 08:38:21;;;;;;;;;;;11.00;99.90;;;;;;5033621;28;19925;-67
2023/01/01 08:40:46;;;;;;;;;;;11.00;99.90;;;;;;5060301;28;19932;-67
2023/01/01 08:43:12;;;;;;;;;;;11.00;99.90;;;;;;5043951;28;19921;-66
2023/01/01 08:45:37;;;;;;;;;;;11.00;99.90;;;;;;5037096;28;19924;-67
2023/01/01 08:48:03;;;;;;;;;;;11.00;99.90;;;;;;5045434;28;19929;-67
2023/01/01 08:50:29;;;;;;;;;;;11.00;99.90;;;;;;5032581;28;20294;-67
2023/01/01 08:52:56;;;;;;;;;;;11.00;99.90;;;;;;5043745;28;19924;-67
2023/01/01 08:55:21;;;;;;;;;;;11.00;99.90;;;;;;5033658;28;19921;-66
2023/01/01 08:57:47;;;;;;;;;;;11.00;99.90;;;;;;5059433;28;19929;-66
2023/01/01 09:00:13;;;;;;;;;;;11.00;99.90;;;;;;5072873;28;20369;-67
2023/01/01 09:02:38;;;;;;;;;;;11.00;99.90;;;;;;5045081;28;19929;-72
2023/01/01 09:05:04;;;;;;;;;;;11.00;99.90;;;;;;5039928;28;19955;-66
2023/01/01 09:07:30;;;;;;;;;;;11.00;99.90;;;;;;5052448;28;19986;-68
2023/01/01 09:09:55;;;;;;;;;;;11.00;99.90;;;;;;5041996;28;19920;-66
2023/01/01 09:12:21;;;;;;;;;;;11.00;99.90;;;;;;5049751;28;20390;-67
2023/01/01 09:14:46;;;;;;;;;;;11.00;99.90;;;;;;5040889;28;19929;-66
2023/01/01 09:17:12;;;;;;;;;;;11.00;99.90;;;;;;5047343;28;19924;-66
2023/01/01 09:19:37;;;;;;;;;;;11.00;99.90;;;;;;5041711;28;19982;-66
2023/01/01 09:22:03;;;;;;;;;;;11.00;99.90;;;;;;5050262;28;20003;-67
2023/01/01 09:24:29;;;;;;;;;;;11.00;99.90;;;;;;5052126;28;19928;-68
2023/01/01 09:26:54;;;;;;;;;;;11.10;99.90;;;;;;5044507;28;19979;-66
2023/01/01 09:29:20;;;;;;;;;;;11.10;99.90;;;;;;5044298;28;19975;-67
2023/01/01 09:31:48;;;;;;;;;;;11.10;99.90;;;;;;5042974;28;19921;-66
2023/01/01 09:34:15;;;;;;;;;;;11.00;99.90;;;;;;5048587;28;19998;-66
2023/01/01 09:36:40;;;;;;;;;;;11.10;99.90;;;;;;5048837;28;20395;-66
2023/01/01 09:39:06;;;;;;;;;;;11.00;99.90;;;;;;5084653;28;20003;-66
2023/01/01 09:41:40;;;;;;;;;;;11.10;99.90;;;;;;5073184;28;19921;-66
2023/01/01 09:44:18;;;;;;;;;;;11.10;99.90;;;;;;5046892;28;19943;-66
2023/01/01 09:46:43;;;;;;;;;;;11.10;99.90;;;;;;5038856;28;19979;-71
2023/01/01 09:49:16;;;;;;;;;;;11.10;99.90;;;;;;5044030;28;19964;-69
2023/01/01 09:51:42;;;;;;;;;;;11.10;99.90;;;;;;5047745;28;20361;-67
2023/01/01 09:54:20;;;;;;;;;;;11.20;99.90;;;;;;5049267;28;19986;-65
2023/01/01 09:56:55;;;;;;;;;;;11.20;99.90;;;;;;5038592;28;19975;-73
2023/01/01 09:59:22;;;;;;;;;;;11.20;99.90;;;;;;5043560;28;19928;-69
2023/01/01 10:02:03;;;;;;;;;;;11.20;99.90;;;;;;5042041;28;20294;-67
2023/01/01 10:04:37;;;;;;;;;;;11.30;99.90;;;;;;5045034;28;19925;-67
2023/01/01 10:07:09;;;;;;;;;;;11.30;99.90;;;;;;5062652;28;19935;-67
2023/01/01 10:09:34;;;;;;;;;;;11.30;99.90;;;;;;5068376;28;20281;-67
2023/01/01 10:12:20;;;;;;;;;;;11.40;99.90;;;;;;5038482;28;19920;-67
2023/01/01 10:14:49;;;;;;;;;;;11.40;99.90;;;;;;5042558;28;19920;-67
2023/01/01 10:17:17;;;;;;;;;;;11.40;99.90;;;;;;5041501;28;19924;-66
2023/01/01 10:19:44;;;;;;;;;;;11.40;99.90;;;;;;5050911;28;19930;-68
2023/01/01 10:22:15;;;;;;;;;;;11.50;99.90;;;;;;5046863;28;19925;-66
2023/01/01 10:24:44;;;;;;;;;;;11.50;99.90;;;;;;5050996;28;19929;-68
2023/01/01 10:27:20;;;;;;;;;;;11.60;99.90;;;;;;5048420;28;19920;-67
2023/01/01 10:29:48;;;;;;;;;;;11.60;99.90;;;;;;5043775;28;20469;-65
2023/01/01 10:32:24;;;;;;;;;;;11.60;99.90;;;;;;5052247;28;19944;-65
2023/01/01 10:34:50;;;;;;;;;;;11.60;99.90;;;;;;5080337;28;20015;-73
2023/01/01 10:37:16;;;;;;;;;;;11.60;99.90;;;;;;5061691;28;20027;-67
2023/01/01 10:39:42;;;;;;;;;;;11.50;99.90;;;;;;5071358;28;19924;-66
2023/01/01 10:42:10;;;;;;;;;;;11.50;99.90;;;;;;5034770;28;20017;-69
2023/01/01 10:44:36;;;;;;;;;;;11.50;99.90;;;;;;5038050;28;20488;-68
2023/01/01 10:47:21;;;;;;;;;;;11.40;99.90;;;;;;5031864;28;19960;-67
2023/01/01 10:49:55;;;;;;;;;;;11.40;99.90;;;;;;5030697;28;19932;-68
2023/01/01 10:52:47;;;;;;;;;;;11.40;99.90;;;;;;5043892;28;19925;-67
2023/01/01 10:55:24;;;;;;;;;;;11.40;99.90;;;;;;5033425;28;19916;-68
2023/01/01 10:57:50;;;;;;;;;;;11.40;99.90;;;;;;5031127;28;19924;-67
2023/01/01 11:00:26;;;;;;;;;;;11.30;99.90;;;;;;5034966;28;21025;-67
2023/01/01 11:03:10;;;;;;;;;;;11.30;99.90;;;;;;5040882;28;19928;-67
2023/01/01 11:05:35;;;;;;;;;;;11.40;99.90;;;;;;5039537;28;19956;-69
2023/01/01 11:08:01;;;;;;;;;;;11.30;99.90;;;;;;5041091;28;19980;-66
2023/01/01 11:10:29;;;;;;;;;;;11.40;99.90;;;;;;5043799;28;19920;-67
2023/01/01 11:12:55;;;;;;;;;;;11.40;99.90;;;;;;5045336;28;19920;-73
2023/01/01 11:15:24;;;;;;;;;;;11.40;99.90;;;;;;5046767;28;19921;-66
2023/01/01 11:17:50;;;;;;;;;;;11.50;99.90;;;;;;5038154;28;19932;-66
2023/01/01 11:20:18;;;;;;;;;;;11.50;99.90;;;;;;5043227;28;19925;-66
2023/01/01 11:22:46;;;;;;;;;;;11.60;99.90;;;;;;5052700;28;19928;-69
2023/01/01 11:25:20;;;;;;;;;;;11.60;99.90;;;;;;5046913;28;19927;-68
2023/01/01 11:27:46;;;;;;;;;;;11.60;99.90;;;;;;5042424;28;19921;-69
2023/01/01 11:30:23;;;;;;;;;;;11.60;99.90;;;;;;5043392;28;19928;-68
2023/01/01 11:32:50;;;;;;;;;;;11.70;99.90;;;;;;5050542;28;20293;-68
2023/01/01 11:35:17;;;;;;;;;;;11.70;99.90;;;;;;5045394;28;19921;-68
2023/01/01 11:37:44;;;;;;;;;;;11.60;99.90;;;;;;5043222;28;19924;-68
2023/01/01 11:40:21;;;;;;;;;;;11.60;99.90;;;;;;5038072;28;20433;-68
2023/01/01 11:42:56;;;;;;;;;;;11.60;99.90;;;;;;5036169;28;20175;-68
2023/01/01 11:45:23;;;;;;;;;;;11.60;99.90;;;;;;5043907;28;19925;-69
2023/01/01 11:47:57;;;;;;;;;;;11.60;99.90;;;;;;5038121;28;19921;-69
2023/01/01 11:50:33;;;;;;;;;;;11.60;99.90;;;;;;5035956;28;20023;-66
2023/01/01 11:53:19;;;;;;;;;;;11.60;99.90;;;;;;5036303;28;19983;-71
2023/01/01 11:55:49;;;;;;;;;;;11.60;99.90;;;;;;5039317;28;19931;-68
2023/01/01 11:58:15;;;;;;;;;;;11.60;99.90;;;;;;5047559;28;19920;-69
2023/01/01 12:00:40;;;;;;;;;;;11.60;99.90;;;;;;5039360;28;19946;-67
2023/01/01 12:03:27;;;;;;;;;;;11.60;99.90;;;;;;5037530;28;20287;-68
2023/01/01 12:06:05;;;;;;;;;;;11.60;99.90;;;;;;5044613;28;19931;-68
2023/01/01 12:08:33;;;;;;;;;;;11.60;99.90;;;;;;5048012;28;19932;-69
2023/01/01 12:11:14;;;;;;;;;;;11.60;99.90;;;;;;5047119;28;19924;-68
2023/01/01 12:13:44;;;;;;;;;;;11.70;99.90;;;;;;5047913;28;20032;-69
2023/01/01 12:16:15;;;;;;;;;;;11.70;99.90;;;;;;5049021;28;20062;-68
2023/01/01 12:18:46;;;;;;;;;;;11.80;99.90;;;;;;5047128;28;19986;-70
2023/01/01 12:21:27;;;;;;;;;;;11.80;99.90;;;;;;5047400;28;19924;-68
2023/01/01 12:23:53;;;;;;;;;;;11.80;99.90;;;;;;5073488;28;19920;-67
2023/01/01 12:26:38;;;;;;;;;;;11.80;99.90;;;;;;5048128;28;19925;-67
2023/01/01 12:29:18;;;;;;;;;;;11.80;99.90;;;;;;5047734;28;19927;-69
2023/01/01 12:31:51;;;;;;;;;;;11.80;99.90;;;;;;5064006;28;19926;-66
2023/01/01 12:34:39;;;;;;;;;;;11.80;99.90;;;;;;5044547;28;19929;-66
2023/01/01 12:37:05;;;;;;;;;;;11.80;99.90;;;;;;5025014;28;20615;-71
2023/01/01 12:39:49;;;;;;;;;;;11.80;99.90;;;;;;5042344;28;19924;-67
2023/01/01 12:42:20;;;;;;;;;;;11.80;99.90;;;;;;5077025;28;19925;-68
2023/01/01 12:44:49;;;;;;;;;;;11.90;99.90;;;;;;5037951;28;19921;-66
2023/01/01 12:47:15;;;;;;;;;;;11.90;99.90;;;;;;5046359;28;19924;-68
2023/01/01 12:49:53;;;;;;;;;;;11.90;99.90;;;;;;5038596;28;19935;-67
2023/01/01 12:52:37;;;;;;;;;;;11.90;99.90;;;;;;5035974;28;20368;-70
2023/01/01 12:55:06;;;;;;;;;;;11.90;99.90;;;;;;5063817;28;19921;-67
2023/01/01 12:57:35;;;;;;;;;;;11.90;99.90;;;;;;5045537;28;19928;-68
2023/01/01 13:00:03;;;;;;;;;;;11.90;99.90;;;;;;5036206;28;19921;-67
2023/01/01 13:02:29;;;;;;;;;;;11.90;99.90;;;;;;5038261;28;19967;-67
2023/01/01 13:05:15;;;;;;;;;;;11.90;99.90;;;;;;5040941;28;19924;-65
2023/01/01 13:07:42;;;;;;;;;;;11.90;99.90;;;;;;5040751;28;19928;-65
2023/01/01 13:10:15;;;;;;;;;;;12.00;99.90;;;;;;5070553;28;20344;-65
2023/01/01 13:12:41;;;;;;;;;;;12.00;99.90;;;;;;5040987;28;19936;-66
2023/01/01 13:15:25;;;;;;;;;;;12.00;99.90;;;;;;5048383;28;20273;-66
2023/01/01 13:17:52;;;;;;;;;;;12.00;99.90;;;;;;5048092;28;19959;-66
2023/01/01 13:20:25;;;;;;;;;;;12.00;99.90;;;;;;5044704;28;20012;-67
2023/01/01 13:22:50;;;;;;;;;;;12.00;99.90;;;;;;5050016;28;19921;-67
2023/01/01 13:25:16;;;;;;;;;;;12.00;99.90;;;;;;5039490;28;19925;-75
2023/01/01 13:28:02;;;;;;;;;;;11.90;99.90;;;;;;5044347;28;19924;-68
2023/01/01 13:30:37;;;;;;;;;;;12.00;99.90;;;;;;5042746;28;20334;-69
2023/01/01 13:33:32;;;;;;;;;;;11.90;99.90;;;;;;5039758;28;19932;-68
2023/01/01 13:36:07;;;;;;;;;;;11.90;99.90;;;;;;5043142;28;19960;-68
2023/01/01 13:38:51;;;;;;;;;;;11.90;99.90;;;;;;5046952;28;20015;-68
2023/01/01 13:41:34;;;;;;;;;;;11.90;99.90;;;;;;5037809;28;19925;-69
2023/01/01 13:43:59;;;;;;;;;;;11.90;99.90;;;;;;5032642;28;19921;-69
2023/01/01 13:46:40;;;;;;;;;;;11.80;99.90;;;;;;5046378;28;20286;-69
2023/01/01 13:49:13;;;;;;;;;;;11.80;99.90;;;;;;5041954;28;19928;-70
2023/01/01 13:51:56;;;;;;;;;;;11.80;99.90;;;;;;5039816;28;20011;-69
2023/01/01 13:54:40;;;;;;;;;;;11.80;99.90;;;;;;5047817;28;19924;-68
2023/01/01 13:57:11;;;;;;;;;;;11.80;99.90;;;;;;5035694;28;20349;-70
2023/01/01 13:59:37;;;;;;;;;;;11.80;99.90;;;;;;5043716;28;19932;-68
2023/01/01 14:02:10;;;;;;;;;;;11.80;99.90;;;;;;5053539;28;19973;-68
2023/01/01 14:05:11;;;;;;;;;;;11.70;99.90;;;;;;5050369;28;20002;-68
2023/01/01 14:07:40;;;;;;;;;;;11.70;99.90;;;;;;5001911;28;19927;-67
2023/01/01 14:10:15;;;;;;;;;;;11.70;99.90;;;;;;5034100;28;19991;-67
2023/01/01 14:12:40;;;;;;;;;;;11.60;99.90;;;;;;5048256;28;19947;-70
2023/01/01 14:15:15;;;;;;;;;;;11.60;99.90;;;;;;5044497;28;19962;-68
2023/01/01 14:17:41;;;;;;;;;;;11.60;99.90;;;;;;5039077;28;19979;-67
2023/01/01 14:20:07;;;;;;;;;;;11.60;99.90;;;;;;5047168;28;20186;-66
2023/01/01 14:22:33;;;;;;;;;;;11.60;99.90;;;;;;5047003;28;19927;-68
2023/01/01 14:24:59;;;;;;;;;;;11.60;99.90;;;;;;5065388;28;20008;-67
2023/01/01 14:27:26;;;;;;;;;;;11.60;99.90;;;;;;5052636;28;20352;-67
2023/01/01 14:29:54;;;;;;;;;;;11.50;99.90;;;;;;5052265;28;19925;-70